createdAt,value
2018-06-03T00:05:33.320Z,99.90
2018-06-03T00:11:37.361Z,99.90
2018-06-03T00:17:41.433Z,99.90
2018-06-03T00:23:45.469Z,99.90
2018-06-03T00:29:49.894Z,99.90
2018-06-03T00:36:12.924Z,99.90
2018-06-03T00:42:17.315Z,99.90
2018-06-03T00:48:21.720Z,99.90
2018-06-03T00:54:26.907Z,99.90
2018-06-03T01:00:31.275Z,99.90
2018-06-03T01:06:35.636Z,99.90
2018-06-03T01:12:39.946Z,99.90
2018-06-03T01:18:45.138Z,99.90
2018-06-03T01:24:49.883Z,99.90
2018-06-03T01:30:54.307Z,99.90
2018-06-03T01:36:58.665Z,99.90
2018-06-03T01:43:03.019Z,99.90
2018-06-03T01:49:07.364Z,99.90
2018-06-03T01:55:12.485Z,99.90
2018-06-03T02:01:16.845Z,99.90
2018-06-03T02:07:22.257Z,99.90
2018-06-03T02:13:26.677Z,99.90
2018-06-03T02:19:31.084Z,99.90
2018-06-03T02:25:36.198Z,99.90
2018-06-03T02:31:40.562Z,99.90
2018-06-03T02:37:44.912Z,99.90
2018-06-03T02:43:50.202Z,99.90
2018-06-03T02:49:55.408Z,99.90
2018-06-03T02:56:00.555Z,99.90
2018-06-03T03:02:05.087Z,99.90
2018-06-03T03:08:10.204Z,99.90
2018-06-03T03:14:14.546Z,99.90
2018-06-03T03:20:19.289Z,99.90
2018-06-03T03:26:23.639Z,99.90
2018-06-03T03:32:28.436Z,99.90
2018-06-03T03:38:32.824Z,99.90
2018-06-03T03:44:37.149Z,99.90
2018-06-03T03:50:41.551Z,99.90
2018-06-03T03:56:45.922Z,99.90
2018-06-03T04:02:50.278Z,99.90
2018-06-03T04:08:54.871Z,99.90
2018-06-03T04:14:59.234Z,99.90
2018-06-03T04:21:03.579Z,99.90
2018-06-03T04:27:08.078Z,99.90
2018-06-03T04:33:13.220Z,99.90
2018-06-03T04:39:17.546Z,99.90
2018-06-03T04:45:21.970Z,99.90
2018-06-03T04:51:26.360Z,99.90
2018-06-03T04:57:32.236Z,99.90
2018-06-03T05:03:36.598Z,99.90
2018-06-03T05:09:40.941Z,99.90
2018-06-03T05:15:46.140Z,99.90
2018-06-03T05:21:50.708Z,99.90
2018-06-03T05:27:56.226Z,99.90
2018-06-03T05:34:01.352Z,99.90
2018-06-03T05:40:05.705Z,99.90
2018-06-03T05:46:10.059Z,99.90
2018-06-03T05:52:15.219Z,99.90
2018-06-03T05:58:19.661Z,99.90
2018-06-03T06:04:25.009Z,99.90
2018-06-03T06:10:29.366Z,99.90
2018-06-03T06:16:33.719Z,99.90
2018-06-03T06:22:38.110Z,99.90
2018-06-03T06:28:42.621Z,99.90
2018-06-03T06:34:47.180Z,99.90
2018-06-03T06:40:51.845Z,99.90
2018-06-03T06:46:56.289Z,99.90
2018-06-03T06:53:00.672Z,99.90
2018-06-03T06:59:05.029Z,99.90
2018-06-03T07:05:10.230Z,99.90
2018-06-03T07:11:14.582Z,99.90
2018-06-03T07:17:20.846Z,99.90
2018-06-03T07:23:25.617Z,99.90
2018-06-03T07:29:30.087Z,99.90
2018-06-03T07:35:35.207Z,99.90
2018-06-03T07:41:39.557Z,99.90
2018-06-03T07:47:43.901Z,99.90
2018-06-03T07:53:49.757Z,99.90
2018-06-03T07:59:54.299Z,99.90
2018-06-03T08:05:58.727Z,99.90
2018-06-03T08:12:03.423Z,99.90
2018-06-03T08:18:07.809Z,99.90
2018-06-03T08:24:12.166Z,99.90
2018-06-03T08:30:16.556Z,99.90
2018-06-03T08:36:21.600Z,99.90
2018-06-03T08:42:25.949Z,99.90
2018-06-03T08:48:31.069Z,99.90
2018-06-03T08:54:35.418Z,99.90
2018-06-03T09:00:40.600Z,99.90
2018-06-03T09:06:45.724Z,99.90
2018-06-03T09:12:50.196Z,99.90
2018-06-03T09:18:54.646Z,99.60
2018-06-03T09:24:59.953Z,96.60
2018-06-03T09:31:07.090Z,96.00
2018-06-03T09:37:11.733Z,95.90
2018-06-03T09:43:16.102Z,94.80
2018-06-03T09:49:20.634Z,94.20
2018-06-03T09:55:25.246Z,94.80
2018-06-03T10:01:29.606Z,90.70
2018-06-03T10:07:33.970Z,90.60
2018-06-03T10:13:38.359Z,86.50
2018-06-03T10:19:42.718Z,91.30
2018-06-03T10:25:47.030Z,91.00
2018-06-03T10:31:52.257Z,90.90
2018-06-03T10:37:57.485Z,91.50
2018-06-03T10:44:01.849Z,91.50
2018-06-03T10:50:06.195Z,91.40
2018-06-03T10:56:10.563Z,88.20
2018-06-03T11:02:14.911Z,86.70
2018-06-03T11:08:21.128Z,90.40
2018-06-03T11:14:25.573Z,90.30
2018-06-03T11:20:29.986Z,90.30
2018-06-03T11:26:34.341Z,91.80
2018-06-03T11:32:38.708Z,93.00
2018-06-03T11:38:43.076Z,93.20
2018-06-03T11:44:47.467Z,91.80
2018-06-03T11:50:52.052Z,93.30
2018-06-03T11:57:00.376Z,93.20
2018-06-03T12:03:05.488Z,94.60
2018-06-03T12:09:09.850Z,94.50
2018-06-03T12:15:15.145Z,90.50
2018-06-03T12:21:20.252Z,92.70
2018-06-03T12:27:25.073Z,92.70
2018-06-03T12:33:29.457Z,93.70
2018-06-03T12:39:33.809Z,94.10
2018-06-03T12:45:38.214Z,94.60
2018-06-03T12:51:42.640Z,94.90
2018-06-03T12:57:47.002Z,94.30
2018-06-03T13:03:52.295Z,93.60
2018-06-03T13:09:57.560Z,91.80
2018-06-03T13:16:49.779Z,91.70
2018-06-03T13:22:55.917Z,92.90
2018-06-03T13:29:01.751Z,90.70
2018-06-03T13:35:07.571Z,91.80
2018-06-03T13:41:13.270Z,91.00
2018-06-03T13:47:19.421Z,88.20
2018-06-03T13:53:25.613Z,83.50
2018-06-03T13:59:31.272Z,83.20
2018-06-03T14:05:37.004Z,82.80
2018-06-03T14:11:42.783Z,82.70
2018-06-03T14:17:48.393Z,85.60
2018-06-03T14:23:54.249Z,73.70
2018-06-03T14:30:00.182Z,70.40
2018-06-03T14:36:05.945Z,61.90
2018-06-03T14:42:12.033Z,64.50
2018-06-03T14:48:17.784Z,64.80
2018-06-03T14:54:24.189Z,64.70
2018-06-03T15:00:30.476Z,67.40
2018-06-03T15:06:36.244Z,69.60
2018-06-03T15:12:41.993Z,71.50
2018-06-03T15:18:47.681Z,71.10
2018-06-03T15:24:53.835Z,70.30
2018-06-03T15:30:59.551Z,74.70
2018-06-03T15:37:05.400Z,75.20
2018-06-03T15:43:11.077Z,78.60
2018-06-03T15:49:16.700Z,82.80
2018-06-03T15:55:23.568Z,86.10
2018-06-03T16:01:29.404Z,89.10
2018-06-03T16:07:35.054Z,90.10
2018-06-03T16:13:40.831Z,87.00
2018-06-03T16:19:46.403Z,89.70
2018-06-03T16:25:52.278Z,90.10
2018-06-03T16:31:57.977Z,86.30
2018-06-03T16:38:03.617Z,84.40
2018-06-03T16:44:09.279Z,80.60
2018-06-03T16:50:14.924Z,76.80
2018-06-03T16:56:20.890Z,75.40
2018-06-03T17:02:26.764Z,73.10
2018-06-03T17:08:32.437Z,69.20
2018-06-03T17:14:38.158Z,67.50
2018-06-03T17:20:43.917Z,65.90
2018-06-03T17:26:49.962Z,68.40
2018-06-03T17:32:55.934Z,66.80
2018-06-03T17:39:01.577Z,67.30
2018-06-03T17:45:07.279Z,67.70
2018-06-03T17:51:12.937Z,66.90
2018-06-03T17:57:18.605Z,68.00
2018-06-03T18:03:25.038Z,69.10
2018-06-03T18:09:30.845Z,76.70
2018-06-03T18:15:36.504Z,83.00
2018-06-03T18:21:42.534Z,84.50
2018-06-03T18:27:48.433Z,85.60
2018-06-03T18:33:54.752Z,87.90
2018-06-03T18:40:00.414Z,88.50
2018-06-03T18:46:06.178Z,89.60
2018-06-03T18:52:11.905Z,91.50
2018-06-03T18:58:17.682Z,94.10
2018-06-03T19:04:23.783Z,97.20
2018-06-03T19:10:29.616Z,99.70
2018-06-03T19:16:35.316Z,99.90
2018-06-03T19:22:41.175Z,99.90
2018-06-03T19:28:46.779Z,99.90
2018-06-03T19:34:53.369Z,99.90
2018-06-03T19:40:59.270Z,99.90
2018-06-03T19:47:05.266Z,99.90
2018-06-03T19:53:11.112Z,99.90
2018-06-03T19:59:16.781Z,99.90
2018-06-03T20:05:22.599Z,99.90
2018-06-03T20:11:28.572Z,99.90
2018-06-03T20:17:34.283Z,99.90
2018-06-03T20:23:40.199Z,99.90
2018-06-03T20:29:45.836Z,99.90
2018-06-03T20:35:52.657Z,99.90
2018-06-03T20:41:58.651Z,99.90
2018-06-03T20:48:04.357Z,99.90
2018-06-03T20:54:10.176Z,99.90
2018-06-03T21:00:15.857Z,99.90
2018-06-03T21:06:22.160Z,99.90
2018-06-03T21:12:27.973Z,99.90
2018-06-03T21:18:33.745Z,99.90
2018-06-03T21:24:39.791Z,99.90
2018-06-03T21:30:45.504Z,99.90
2018-06-03T21:36:52.558Z,99.90
2018-06-03T21:42:58.657Z,99.90
2018-06-03T21:49:04.429Z,99.90
2018-06-03T21:55:10.156Z,99.90
2018-06-03T22:01:15.818Z,99.90
2018-06-03T22:07:23.172Z,99.90
2018-06-03T22:13:29.139Z,99.90
2018-06-03T22:19:34.793Z,99.90
2018-06-03T22:25:40.480Z,99.90
2018-06-03T22:31:46.203Z,99.90
2018-06-03T22:37:52.467Z,99.90
2018-06-03T22:43:58.670Z,99.90
2018-06-03T22:50:04.390Z,99.90
2018-06-03T22:56:10.213Z,99.90
2018-06-03T23:02:16.065Z,99.90
2018-06-03T23:08:22.740Z,99.90
2018-06-03T23:14:28.803Z,99.90
2018-06-03T23:20:34.665Z,99.90
2018-06-03T23:26:40.421Z,99.90
2018-06-03T23:32:46.177Z,99.90
2018-06-03T23:38:53.211Z,99.90
2018-06-03T23:44:59.247Z,99.90
2018-06-03T23:51:05.033Z,99.90
2018-06-03T23:57:10.861Z,99.90
